sensor_id;sensor_type;location;lat;lon;timestamp;pressure;altitude;pressure_sealevel;temperature;humidity
63700;BME280;49845;47.130;142.766;2023-11-19T00:01:25;98180.47;;;2.90;87.70
63700;BME280;49845;47.130;142.766;2023-11-19T00:03:56;98179.56;;;2.91;86.57
63700;BME280;49845;47.130;142.766;2023-11-19T00:06:28;98187.22;;;2.96;86.23
63700;BME280;49845;47.130;142.766;2023-11-19T00:08:59;98185.44;;;2.99;84.72
63700;BME280;49845;47.130;142.766;2023-11-19T00:11:31;98186.25;;;3.01;85.11
63700;BME280;49845;47.130;142.766;2023-11-19T00:14:02;98206.88;;;3.05;85.30
63700;BME280;49845;47.130;142.766;2023-11-19T00:16:32;98208.47;;;3.09;85.39
63700;BME280;49845;47.130;142.766;2023-11-19T00:19:03;98213.66;;;3.09;84.93
63700;BME280;49845;47.130;142.766;2023-11-19T00:21:35;98216.16;;;3.12;84.40
63700;BME280;49845;47.130;142.766;2023-11-19T00:24:06;98230.72;;;3.16;84.71
63700;BME280;49845;47.130;142.766;2023-11-19T00:26:37;98234.13;;;3.18;84.21
63700;BME280;49845;47.130;142.766;2023-11-19T00:29:07;98247.88;;;3.17;83.52
63700;BME280;49845;47.130;142.766;2023-11-19T00:31:37;98258.22;;;3.17;82.80
63700;BME280;49845;47.130;142.766;2023-11-19T00:34:08;98249.53;;;3.21;82.80
63700;BME280;49845;47.130;142.766;2023-11-19T00:36:40;98264.94;;;3.27;83.66
63700;BME280;49845;47.130;142.766;2023-11-19T00:39:13;98276.13;;;3.26;82.48
63700;BME280;49845;47.130;142.766;2023-11-19T00:41:44;98273.47;;;3.29;81.23
63700;BME280;49845;47.130;142.766;2023-11-19T00:44:15;98267.44;;;3.30;82.07
63700;BME280;49845;47.130;142.766;2023-11-19T00:46:45;98276.88;;;3.31;82.56
63700;BME280;49845;47.130;142.766;2023-11-19T00:49:16;98276.88;;;3.31;83.03
63700;BME280;49845;47.130;142.766;2023-11-19T00:51:48;98273.38;;;3.35;83.58
63700;BME280;49845;47.130;142.766;2023-11-19T00:54:18;98269.97;;;3.33;82.75
63700;BME280;49845;47.130;142.766;2023-11-19T00:56:49;98273.38;;;3.35;83.85
63700;BME280;49845;47.130;142.766;2023-11-19T00:59:21;98273.31;;;3.38;83.41
63700;BME280;49845;47.130;142.766;2023-11-19T01:01:52;98299.06;;;3.41;82.69
63700;BME280;49845;47.130;142.766;2023-11-19T01:04:22;98292.06;;;3.46;82.66
63700;BME280;49845;47.130;142.766;2023-11-19T01:06:55;98300.72;;;3.45;81.79
63700;BME280;49845;47.130;142.766;2023-11-19T01:09:25;98298.03;;;3.50;82.32
63700;BME280;49845;47.130;142.766;2023-11-19T01:11:56;98302.28;;;3.53;81.63
63700;BME280;49845;47.130;142.766;2023-11-19T01:14:28;98313.44;;;3.55;82.26
63700;BME280;49845;47.130;142.766;2023-11-19T01:16:58;98334.03;;;3.58;82.92
63700;BME280;49845;47.130;142.766;2023-11-19T01:19:29;98336.50;;;3.64;82.39
63700;BME280;49845;47.130;142.766;2023-11-19T01:22:01;98334.63;;;3.72;82.83
63700;BME280;49845;47.130;142.766;2023-11-19T01:24:31;98336.31;;;3.73;80.48
63700;BME280;49845;47.130;142.766;2023-11-19T01:27:02;98353.59;;;3.71;80.64
63700;BME280;49845;47.130;142.766;2023-11-19T01:29:32;98334.69;;;3.69;81.60
63700;BME280;49845;47.130;142.766;2023-11-19T01:32:03;98351.75;;;3.78;81.36
63700;BME280;49845;47.130;142.766;2023-11-19T01:34:33;98355.94;;;3.82;80.66
63700;BME280;49845;47.130;142.766;2023-11-19T01:37:06;98349.94;;;3.81;80.11
63700;BME280;49845;47.130;142.766;2023-11-19T01:39:37;98346.41;;;3.85;79.40
63700;BME280;49845;47.130;142.766;2023-11-19T01:42:08;98359.78;;;4.06;81.02
63700;BME280;49845;47.130;142.766;2023-11-19T01:44:40;98356.25;;;4.10;78.18
63700;BME280;49845;47.130;142.766;2023-11-19T01:47:10;98289.91;;;3.70;79.27
63700;BME280;49845;47.130;142.766;2023-11-19T01:49:41;98343.94;;;4.21;77.72
63700;BME280;49845;47.130;142.766;2023-11-19T01:52:13;98356.19;;;4.13;78.67
63700;BME280;49845;47.130;142.766;2023-11-19T01:54:43;98361.28;;;4.16;77.51
63700;BME280;49845;47.130;142.766;2023-11-19T01:57:15;98345.84;;;4.13;79.05
63700;BME280;49845;47.130;142.766;2023-11-19T01:59:45;98356.84;;;4.24;76.57
63700;BME280;49845;47.130;142.766;2023-11-19T02:02:16;98375.88;;;4.19;77.11
63700;BME280;49845;47.130;142.766;2023-11-19T02:04:50;98373.28;;;4.20;78.38
63700;BME280;49845;47.130;142.766;2023-11-19T02:07:24;98369.88;;;4.18;77.15
63700;BME280;49845;47.130;142.766;2023-11-19T02:09:55;98386.13;;;4.23;77.00
63700;BME280;49845;47.130;142.766;2023-11-19T02:12:27;98397.22;;;4.30;74.96
63700;BME280;49845;47.130;142.766;2023-11-19T02:15:02;98383.47;;;4.26;76.89
63700;BME280;49845;47.130;142.766;2023-11-19T02:17:32;98397.28;;;4.25;77.21
63700;BME280;49845;47.130;142.766;2023-11-19T02:20:03;98401.63;;;4.25;78.23
63700;BME280;49845;47.130;142.766;2023-11-19T02:22:39;98380.22;;;4.17;77.30
63700;BME280;49845;47.130;142.766;2023-11-19T02:25:15;98379.44;;;4.15;76.98
63700;BME280;49845;47.130;142.766;2023-11-19T02:27:52;98391.78;;;4.41;77.51
63700;BME280;49845;47.130;142.766;2023-11-19T02:30:25;98395.03;;;4.52;76.73
63700;BME280;49845;47.130;142.766;2023-11-19T02:32:57;98386.97;;;4.25;75.48
63700;BME280;49845;47.130;142.766;2023-11-19T02:35:30;98408.47;;;4.27;75.54
63700;BME280;49845;47.130;142.766;2023-11-19T02:38:00;98416.31;;;4.21;76.56
63700;BME280;49845;47.130;142.766;2023-11-19T02:40:32;98422.47;;;4.16;76.15
63700;BME280;49845;47.130;142.766;2023-11-19T02:43:04;98417.28;;;4.17;75.80
63700;BME280;49845;47.130;142.766;2023-11-19T02:45:37;98425.56;;;4.35;76.58
63700;BME280;49845;47.130;142.766;2023-11-19T02:48:07;98425.56;;;4.33;73.78
63700;BME280;49845;47.130;142.766;2023-11-19T02:50:38;98441.88;;;4.37;72.96
63700;BME280;49845;47.130;142.766;2023-11-19T02:53:09;98437.66;;;4.32;73.92
63700;BME280;49845;47.130;142.766;2023-11-19T02:55:41;98424.44;;;4.46;74.21
63700;BME280;49845;47.130;142.766;2023-11-19T02:58:18;98438.84;;;4.58;74.88
63700;BME280;49845;47.130;142.766;2023-11-19T03:00:54;98419.03;;;4.57;74.41
63700;BME280;49845;47.130;142.766;2023-11-19T03:03:28;98442.16;;;4.65;72.62
63700;BME280;49845;47.130;142.766;2023-11-19T03:06:07;98444.69;;;4.66;71.99
63700;BME280;49845;47.130;142.766;2023-11-19T03:08:38;98464.47;;;4.69;72.96
63700;BME280;49845;47.130;142.766;2023-11-19T03:11:09;98455.59;;;4.82;72.40
63700;BME280;49845;47.130;142.766;2023-11-19T03:13:41;98457.19;;;4.86;72.57
63700;BME280;49845;47.130;142.766;2023-11-19T03:16:11;98460.69;;;4.85;74.31
63700;BME280;49845;47.130;142.766;2023-11-19T03:18:42;98448.63;;;4.44;73.89
63700;BME280;49845;47.130;142.766;2023-11-19T03:21:13;98450.53;;;4.36;74.93
63700;BME280;49845;47.130;142.766;2023-11-19T03:23:43;98479.47;;;4.53;74.90
63700;BME280;49845;47.130;142.766;2023-11-19T03:26:14;98479.41;;;4.56;74.74
63700;BME280;49845;47.130;142.766;2023-11-19T03:28:46;98505.34;;;4.53;76.06
63700;BME280;49845;47.130;142.766;2023-11-19T03:31:16;98515.66;;;4.54;74.74
63700;BME280;49845;47.130;142.766;2023-11-19T03:33:47;98514.63;;;4.62;76.34
63700;BME280;49845;47.130;142.766;2023-11-19T03:36:17;98500.84;;;4.63;75.61
63700;BME280;49845;47.130;142.766;2023-11-19T03:38:48;98517.38;;;4.54;75.97
63700;BME280;49845;47.130;142.766;2023-11-19T03:41:18;98512.22;;;4.54;75.87
63700;BME280;49845;47.130;142.766;2023-11-19T03:43:51;98522.56;;;4.54;74.04
63700;BME280;49845;47.130;142.766;2023-11-19T03:46:22;98525.97;;;4.56;75.21
63700;BME280;49845;47.130;142.766;2023-11-19T03:48:52;98527.63;;;4.60;74.92
63700;BME280;49845;47.130;142.766;2023-11-19T03:51:23;98535.31;;;4.62;73.88
63700;BME280;49845;47.130;142.766;2023-11-19T03:53:53;98529.31;;;4.61;74.46
63700;BME280;49845;47.130;142.766;2023-11-19T03:56:24;98532.63;;;4.69;72.81
63700;BME280;49845;47.130;142.766;2023-11-19T03:58:57;98525.78;;;4.65;72.18
63700;BME280;49845;47.130;142.766;2023-11-19T04:01:27;98505.94;;;4.66;71.80
63700;BME280;49845;47.130;142.766;2023-11-19T04:03:58;98521.50;;;4.64;72.65
63700;BME280;49845;47.130;142.766;2023-11-19T04:06:28;98517.34;;;4.57;72.77
63700;BME280;49845;47.130;142.766;2023-11-19T04:08:59;98537.78;;;4.69;73.26
63700;BME280;49845;47.130;142.766;2023-11-19T04:11:29;98551.88;;;4.54;72.91
63700;BME280;49845;47.130;142.766;2023-11-19T04:14:02;98565.97;;;4.40;73.20
63700;BME280;49845;47.130;142.766;2023-11-19T04:16:33;98571.97;;;4.40;72.40
63700;BME280;49845;47.130;142.766;2023-11-19T04:19:03;98576.34;;;4.37;73.38
63700;BME280;49845;47.130;142.766;2023-11-19T04:21:34;98559.50;;;4.14;73.34
63700;BME280;49845;47.130;142.766;2023-11-19T04:24:05;98587.44;;;4.42;73.95
63700;BME280;49845;47.130;142.766;2023-11-19T04:26:36;98596.09;;;4.39;72.92
63700;BME280;49845;47.130;142.766;2023-11-19T04:29:12;98596.16;;;4.38;73.13
63700;BME280;49845;47.130;142.766;2023-11-19T04:31:43;98572.00;;;4.39;72.82
63700;BME280;49845;47.130;142.766;2023-11-19T04:34:14;98588.28;;;4.44;72.89
63700;BME280;49845;47.130;142.766;2023-11-19T04:36:45;98588.34;;;4.41;72.98
63700;BME280;49845;47.130;142.766;2023-11-19T04:39:15;98624.53;;;4.41;73.53
63700;BME280;49845;47.130;142.766;2023-11-19T04:41:47;98626.41;;;4.32;73.06
63700;BME280;49845;47.130;142.766;2023-11-19T04:44:20;98614.34;;;4.31;72.70
63700;BME280;49845;47.130;142.766;2023-11-19T04:46:50;98628.09;;;4.33;73.87
63700;BME280;49845;47.130;142.766;2023-11-19T04:49:21;98627.13;;;4.41;73.45
63700;BME280;49845;47.130;142.766;2023-11-19T04:51:51;98571.63;;;4.10;72.95
63700;BME280;49845;47.130;142.766;2023-11-19T04:54:22;98615.16;;;4.35;73.74
63700;BME280;49845;47.130;142.766;2023-11-19T04:56:54;98621.13;;;4.39;73.83
63700;BME280;49845;47.130;142.766;2023-11-19T04:59:27;98641.66;;;4.46;74.48
63700;BME280;49845;47.130;142.766;2023-11-19T05:01:57;98643.63;;;4.33;71.54
63700;BME280;49845;47.130;142.766;2023-11-19T05:04:28;98652.47;;;4.20;72.26
63700;BME280;49845;47.130;142.766;2023-11-19T05:06:58;98667.94;;;4.23;73.32
63700;BME280;49845;47.130;142.766;2023-11-19T05:09:29;98680.84;;;4.23;72.74
63700;BME280;49845;47.130;142.766;2023-11-19T05:12:00;98697.06;;;4.35;71.67
63700;BME280;49845;47.130;142.766;2023-11-19T05:14:32;98687.53;;;4.37;72.82
63700;BME280;49845;47.130;142.766;2023-11-19T05:17:03;98685.00;;;4.33;71.71
63700;BME280;49845;47.130;142.766;2023-11-19T05:19:33;98702.31;;;4.28;71.36
63700;BME280;49845;47.130;142.766;2023-11-19T05:22:04;98704.91;;;4.28;72.43
63700;BME280;49845;47.130;142.766;2023-11-19T05:24:34;98697.28;;;4.19;71.89
63700;BME280;49845;47.130;142.766;2023-11-19T05:27:05;98718.91;;;4.15;72.34
63700;BME280;49845;47.130;142.766;2023-11-19T05:29:38;98728.47;;;4.10;72.35
63700;BME280;49845;47.130;142.766;2023-11-19T05:32:09;98733.72;;;4.04;73.04
63700;BME280;49845;47.130;142.766;2023-11-19T05:34:39;98733.69;;;4.07;73.00
63700;BME280;49845;47.130;142.766;2023-11-19T05:37:13;98756.19;;;3.99;73.31
63700;BME280;49845;47.130;142.766;2023-11-19T05:39:45;98767.63;;;3.81;73.24
63700;BME280;49845;47.130;142.766;2023-11-19T05:42:15;98767.75;;;3.72;73.58
63700;BME280;49845;47.130;142.766;2023-11-19T05:44:47;98770.41;;;3.64;73.97
63700;BME280;49845;47.130;142.766;2023-11-19T05:47:18;98751.69;;;3.50;74.02
63700;BME280;49845;47.130;142.766;2023-11-19T05:49:48;98786.13;;;3.47;74.22
63700;BME280;49845;47.130;142.766;2023-11-19T05:52:19;98778.44;;;3.42;75.38
63700;BME280;49845;47.130;142.766;2023-11-19T05:54:50;98787.97;;;3.37;75.42
63700;BME280;49845;47.130;142.766;2023-11-19T05:57:21;98789.75;;;3.29;75.52
63700;BME280;49845;47.130;142.766;2023-11-19T05:59:53;98794.91;;;3.29;76.70
63700;BME280;49845;47.130;142.766;2023-11-19T06:02:24;98799.22;;;3.29;76.93
63700;BME280;49845;47.130;142.766;2023-11-19T06:04:55;98805.31;;;3.21;76.29
63700;BME280;49845;47.130;142.766;2023-11-19T06:07:25;98819.06;;;3.22;77.21
63700;BME280;49845;47.130;142.766;2023-11-19T06:09:56;98834.56;;;3.22;77.30
63700;BME280;49845;47.130;142.766;2023-11-19T06:12:26;98848.34;;;3.21;77.44
63700;BME280;49845;47.130;142.766;2023-11-19T06:14:59;98848.34;;;3.19;77.85
63700;BME280;49845;47.130;142.766;2023-11-19T06:17:30;98848.34;;;3.21;78.28
63700;BME280;49845;47.130;142.766;2023-11-19T06:20:01;98856.97;;;3.20;77.51
63700;BME280;49845;47.130;142.766;2023-11-19T06:22:32;98851.84;;;3.14;77.47
63700;BME280;49845;47.130;142.766;2023-11-19T06:25:04;98850.19;;;3.07;78.03
63700;BME280;49845;47.130;142.766;2023-11-19T06:27:35;98855.34;;;3.08;78.37
63700;BME280;49845;47.130;142.766;2023-11-19T06:30:08;98855.25;;;3.19;78.46
63700;BME280;49845;47.130;142.766;2023-11-19T06:32:40;98858.72;;;3.18;78.05
63700;BME280;49845;47.130;142.766;2023-11-19T06:35:11;98865.66;;;3.13;78.19
63700;BME280;49845;47.130;142.766;2023-11-19T06:37:42;98865.66;;;3.11;78.48
63700;BME280;49845;47.130;142.766;2023-11-19T06:40:13;98871.72;;;3.06;78.38
63700;BME280;49845;47.130;142.766;2023-11-19T06:42:44;98874.41;;;2.93;78.75
63700;BME280;49845;47.130;142.766;2023-11-19T06:45:16;98877.88;;;2.86;79.14
63700;BME280;49845;47.130;142.766;2023-11-19T06:47:46;98899.38;;;2.88;80.09
63700;BME280;49845;47.130;142.766;2023-11-19T06:50:17;98900.25;;;2.87;79.73
63700;BME280;49845;47.130;142.766;2023-11-19T06:52:47;98910.56;;;2.90;80.25
63700;BME280;49845;47.130;142.766;2023-11-19T06:55:18;98915.66;;;2.96;80.43
63700;BME280;49845;47.130;142.766;2023-11-19T06:57:48;98907.06;;;2.94;80.13
63700;BME280;49845;47.130;142.766;2023-11-19T07:00:20;98907.06;;;2.97;80.43
63700;BME280;49845;47.130;142.766;2023-11-19T07:02:51;98924.25;;;2.98;80.60
63700;BME280;49845;47.130;142.766;2023-11-19T07:05:21;98922.53;;;2.96;80.57
63700;BME280;49845;47.130;142.766;2023-11-19T07:07:52;98917.38;;;2.94;80.45
63700;BME280;49845;47.130;142.766;2023-11-19T07:10:23;98917.34;;;3.00;80.50
63700;BME280;49845;47.130;142.766;2023-11-19T07:12:53;98920.78;;;2.99;79.31
63700;BME280;49845;47.130;142.766;2023-11-19T07:15:25;98910.53;;;2.93;79.30
63700;BME280;49845;47.130;142.766;2023-11-19T07:17:55;98915.69;;;2.93;79.26
63700;BME280;49845;47.130;142.766;2023-11-19T07:20:30;98918.31;;;2.87;79.64
63700;BME280;49845;47.130;142.766;2023-11-19T07:23:01;98909.72;;;2.84;80.15
63700;BME280;49845;47.130;142.766;2023-11-19T07:25:31;98914.06;;;2.77;80.58
63700;BME280;49845;47.130;142.766;2023-11-19T07:28:03;98908.09;;;2.73;81.15
63700;BME280;49845;47.130;142.766;2023-11-19T07:30:35;98862.69;;;2.46;81.14
63700;BME280;49845;47.130;142.766;2023-11-19T07:33:06;98905.53;;;2.69;80.75
63700;BME280;49845;47.130;142.766;2023-11-19T07:35:36;98899.56;;;2.62;81.69
63700;BME280;49845;47.130;142.766;2023-11-19T07:38:07;98906.47;;;2.54;81.87
63700;BME280;49845;47.130;142.766;2023-11-19T07:40:38;98900.50;;;2.47;82.23
63700;BME280;49845;47.130;142.766;2023-11-19T07:43:22;98903.97;;;2.43;83.03
63700;BME280;49845;47.130;142.766;2023-11-19T07:45:54;98901.41;;;2.37;83.56
63700;BME280;49845;47.130;142.766;2023-11-19T07:48:27;98910.03;;;2.33;83.94
63700;BME280;49845;47.130;142.766;2023-11-19T07:50:57;98912.63;;;2.30;83.87
63700;BME280;49845;47.130;142.766;2023-11-19T07:53:28;98904.88;;;2.33;83.94
63700;BME280;49845;47.130;142.766;2023-11-19T07:55:58;98886.00;;;2.26;83.78
63700;BME280;49845;47.130;142.766;2023-11-19T07:58:29;98909.13;;;2.43;83.92
63700;BME280;49845;47.130;142.766;2023-11-19T08:01:01;98901.41;;;2.34;83.28
63700;BME280;49845;47.130;142.766;2023-11-19T08:03:32;98904.03;;;2.28;82.52
63700;BME280;49845;47.130;142.766;2023-11-19T08:06:04;98910.03;;;2.33;82.26
63700;BME280;49845;47.130;142.766;2023-11-19T08:08:35;98914.34;;;2.31;82.16
63700;BME280;49845;47.130;142.766;2023-11-19T08:11:06;98920.31;;;2.36;82.38
63700;BME280;49845;47.130;142.766;2023-11-19T08:13:37;98930.66;;;2.33;82.15
63700;BME280;49845;47.130;142.766;2023-11-19T08:16:09;98922.91;;;2.36;82.96
63700;BME280;49845;47.130;142.766;2023-11-19T08:18:41;98922.06;;;2.35;83.57
63700;BME280;49845;47.130;142.766;2023-11-19T08:21:12;98923.72;;;2.41;83.79
63700;BME280;49845;47.130;142.766;2023-11-19T08:23:43;98892.91;;;2.18;83.62
63700;BME280;49845;47.130;142.766;2023-11-19T08:26:15;98940.00;;;2.49;84.21
63700;BME280;49845;47.130;142.766;2023-11-19T08:28:48;98928.00;;;2.48;83.43
63700;BME280;49845;47.130;142.766;2023-11-19T08:31:22;98931.44;;;2.50;84.18
63700;BME280;49845;47.130;142.766;2023-11-19T08:33:52;98921.19;;;2.38;83.28
63700;BME280;49845;47.130;142.766;2023-11-19T08:36:23;98931.50;;;2.35;83.58
63700;BME280;49845;47.130;142.766;2023-11-19T08:38:53;98940.09;;;2.31;83.09
63700;BME280;49845;47.130;142.766;2023-11-19T08:41:24;98947.00;;;2.26;83.21
63700;BME280;49845;47.130;142.766;2023-11-19T08:43:55;98946.16;;;2.21;83.81
63700;BME280;49845;47.130;142.766;2023-11-19T08:46:27;98955.56;;;2.31;84.16
63700;BME280;49845;47.130;142.766;2023-11-19T08:48:58;98959.03;;;2.25;83.71
63700;BME280;49845;47.130;142.766;2023-11-19T08:51:28;98967.59;;;2.29;84.13
63700;BME280;49845;47.130;142.766;2023-11-19T08:53:59;98971.00;;;2.37;84.65
63700;BME280;49845;47.130;142.766;2023-11-19T08:56:30;98976.16;;;2.37;84.71
63700;BME280;49845;47.130;142.766;2023-11-19T08:59:03;98976.16;;;2.37;83.76
63700;BME280;49845;47.130;142.766;2023-11-19T09:01:35;98972.78;;;2.26;83.34
63700;BME280;49845;47.130;142.766;2023-11-19T09:04:05;98971.09;;;2.15;83.36
63700;BME280;49845;47.130;142.766;2023-11-19T09:06:36;98969.38;;;2.11;83.42
63700;BME280;49845;47.130;142.766;2023-11-19T09:09:06;98956.50;;;2.08;83.79
63700;BME280;49845;47.130;142.766;2023-11-19T09:11:37;98957.38;;;2.01;83.79
63700;BME280;49845;47.130;142.766;2023-11-19T09:14:08;98957.41;;;1.95;84.25
63700;BME280;49845;47.130;142.766;2023-11-19T09:16:40;98959.16;;;1.90;84.82
63700;BME280;49845;47.130;142.766;2023-11-19T09:19:11;98957.44;;;1.86;84.96
63700;BME280;49845;47.130;142.766;2023-11-19T09:21:42;98960.00;;;1.84;85.29
63700;BME280;49845;47.130;142.766;2023-11-19T09:24:12;98969.47;;;1.81;85.47
63700;BME280;49845;47.130;142.766;2023-11-19T09:26:43;98972.88;;;1.86;85.65
63700;BME280;49845;47.130;142.766;2023-11-19T09:29:14;98965.16;;;1.90;86.00
63700;BME280;49845;47.130;142.766;2023-11-19T09:31:46;98933.44;;;1.68;86.05
63700;BME280;49845;47.130;142.766;2023-11-19T09:34:17;98967.72;;;1.92;85.83
63700;BME280;49845;47.130;142.766;2023-11-19T09:36:47;98966.03;;;1.88;86.18
63700;BME280;49845;47.130;142.766;2023-11-19T09:39:18;98962.59;;;1.86;86.90
63700;BME280;49845;47.130;142.766;2023-11-19T09:41:49;98965.16;;;1.84;87.96
63700;BME280;49845;47.130;142.766;2023-11-19T09:44:20;98966.03;;;1.79;88.71
63700;BME280;49845;47.130;142.766;2023-11-19T09:46:54;98972.03;;;1.88;89.59
63700;BME280;49845;47.130;142.766;2023-11-19T09:49:26;98968.56;;;1.94;90.14
63700;BME280;49845;47.130;142.766;2023-11-19T09:52:00;98983.16;;;2.01;89.94
63700;BME280;49845;47.130;142.766;2023-11-19T09:54:31;98990.91;;;1.93;89.74
63700;BME280;49845;47.130;142.766;2023-11-19T09:57:02;98989.22;;;1.85;89.63
63700;BME280;49845;47.130;142.766;2023-11-19T09:59:34;98991.81;;;1.72;89.09
63700;BME280;49845;47.130;142.766;2023-11-19T10:02:07;98994.41;;;1.45;89.57
63700;BME280;49845;47.130;142.766;2023-11-19T10:04:39;98991.78;;;1.29;90.08
63700;BME280;49845;47.130;142.766;2023-11-19T10:07:10;98993.53;;;1.15;91.21
63700;BME280;49845;47.130;142.766;2023-11-19T10:09:41;98993.47;;;1.00;92.44
63700;BME280;49845;47.130;142.766;2023-11-19T10:12:11;98991.75;;;0.86;93.74
63700;BME280;49845;47.130;142.766;2023-11-19T10:14:42;99007.16;;;0.90;94.65
63700;BME280;49845;47.130;142.766;2023-11-19T10:17:14;99013.19;;;0.89;95.75
63700;BME280;49845;47.130;142.766;2023-11-19T10:19:45;98998.59;;;0.84;96.24
63700;BME280;49845;47.130;142.766;2023-11-19T10:22:15;99007.19;;;0.96;96.57
63700;BME280;49845;47.130;142.766;2023-11-19T10:24:46;98996.91;;;0.96;96.67
63700;BME280;49845;47.130;142.766;2023-11-19T10:27:24;99005.50;;;1.07;96.46
63700;BME280;49845;47.130;142.766;2023-11-19T10:29:59;98995.22;;;1.10;96.14
63700;BME280;49845;47.130;142.766;2023-11-19T10:32:31;99007.25;;;1.23;96.20
63700;BME280;49845;47.130;142.766;2023-11-19T10:35:05;99017.53;;;1.29;95.61
63700;BME280;49845;47.130;142.766;2023-11-19T10:37:36;99013.25;;;1.33;96.20
63700;BME280;49845;47.130;142.766;2023-11-19T10:40:08;99007.25;;;1.36;95.72
63700;BME280;49845;47.130;142.766;2023-11-19T10:42:40;99000.41;;;1.38;95.49
63700;BME280;49845;47.130;142.766;2023-11-19T10:45:22;99007.25;;;1.42;95.79
63700;BME280;49845;47.130;142.766;2023-11-19T10:47:56;98997.81;;;1.47;95.39
63700;BME280;49845;47.130;142.766;2023-11-19T10:50:27;98994.38;;;1.43;94.80
63700;BME280;49845;47.130;142.766;2023-11-19T10:52:58;99010.69;;;1.28;94.64
63700;BME280;49845;47.130;142.766;2023-11-19T10:55:29;99015.81;;;1.13;95.41
63700;BME280;49845;47.130;142.766;2023-11-19T10:58:01;99020.94;;;1.01;96.08
63700;BME280;49845;47.130;142.766;2023-11-19T11:00:37;99026.03;;;0.92;97.05
63700;BME280;49845;47.130;142.766;2023-11-19T11:03:14;99019.19;;;0.97;98.09
63700;BME280;49845;47.130;142.766;2023-11-19T11:05:47;99007.19;;;1.02;99.34
63700;BME280;49845;47.130;142.766;2023-11-19T11:08:17;98967.75;;;0.94;99.27
63700;BME280;49845;47.130;142.766;2023-11-19T11:10:53;99017.56;;;1.36;99.11
63700;BME280;49845;47.130;142.766;2023-11-19T11:13:25;99024.44;;;1.47;98.67
63700;BME280;49845;47.130;142.766;2023-11-19T11:15:58;99016.69;;;1.52;98.30
63700;BME280;49845;47.130;142.766;2023-11-19T11:18:30;99029.56;;;1.61;98.16
63700;BME280;49845;47.130;142.766;2023-11-19T11:21:03;99037.28;;;1.66;98.21
63700;BME280;49845;47.130;142.766;2023-11-19T11:23:50;99038.16;;;1.66;97.86
63700;BME280;49845;47.130;142.766;2023-11-19T11:29:26;99044.16;;;1.68;97.90
63700;BME280;49845;47.130;142.766;2023-11-19T11:32:06;99040.75;;;1.65;97.75
63700;BME280;49845;47.130;142.766;2023-11-19T11:35:07;99046.75;;;1.65;97.63
63700;BME280;49845;47.130;142.766;2023-11-19T11:37:45;99045.00;;;1.64;98.02
63700;BME280;49845;47.130;142.766;2023-11-19T11:40:17;99033.84;;;1.56;97.90
63700;BME280;49845;47.130;142.766;2023-11-19T11:42:47;99045.03;;;1.66;97.78
63700;BME280;49845;47.130;142.766;2023-11-19T11:45:35;99031.28;;;1.59;98.01
63700;BME280;49845;47.130;142.766;2023-11-19T11:48:16;99038.16;;;1.48;97.85
63700;BME280;49845;47.130;142.766;2023-11-19T11:50:56;99026.97;;;1.41;98.05
63700;BME280;49845;47.130;142.766;2023-11-19T11:53:26;99026.09;;;1.35;97.69
63700;BME280;49845;47.130;142.766;2023-11-19T11:55:58;99022.69;;;1.23;98.03
63700;BME280;49845;47.130;142.766;2023-11-19T11:58:35;99008.94;;;1.12;98.73
63700;BME280;49845;47.130;142.766;2023-11-19T12:01:07;99025.25;;;1.13;98.89
63700;BME280;49845;47.130;142.766;2023-11-19T12:03:38;99011.53;;;1.07;99.23
63700;BME280;49845;47.130;142.766;2023-11-19T12:06:11;99021.78;;;1.12;99.82
63700;BME280;49845;47.130;142.766;2023-11-19T12:08:41;99015.81;;;1.16;100.00
63700;BME280;49845;47.130;142.766;2023-11-19T12:11:17;99008.97;;;1.23;100.00
63700;BME280;49845;47.130;142.766;2023-11-19T12:13:53;99002.94;;;1.24;100.00
63700;BME280;49845;47.130;142.766;2023-11-19T12:16:26;99008.97;;;1.37;100.00
63700;BME280;49845;47.130;142.766;2023-11-19T12:19:03;99014.09;;;1.40;99.89
63700;BME280;49845;47.130;142.766;2023-11-19T12:21:35;99002.97;;;1.42;99.75
63700;BME280;49845;47.130;142.766;2023-11-19T12:24:07;99007.25;;;1.51;99.74
63700;BME280;49845;47.130;142.766;2023-11-19T12:26:38;98981.53;;;1.45;99.63
63700;BME280;49845;47.130;142.766;2023-11-19T12:29:10;98996.09;;;1.57;99.44
63700;BME280;49845;47.130;142.766;2023-11-19T12:31:44;99006.38;;;1.61;99.61
63700;BME280;49845;47.130;142.766;2023-11-19T12:34:15;99012.41;;;1.63;99.89
63700;BME280;49845;47.130;142.766;2023-11-19T12:36:47;99015.84;;;1.62;100.00
63700;BME280;49845;47.130;142.766;2023-11-19T12:39:17;99000.38;;;1.68;100.00
63700;BME280;49845;47.130;142.766;2023-11-19T12:41:52;99004.69;;;1.72;100.00
63700;BME280;49845;47.130;142.766;2023-11-19T12:44:23;98976.38;;;1.51;100.00
63700;BME280;49845;47.130;142.766;2023-11-19T12:47:00;98984.09;;;1.46;100.00
63700;BME280;49845;47.130;142.766;2023-11-19T12:49:31;99002.09;;;1.36;99.97
63700;BME280;49845;47.130;142.766;2023-11-19T12:52:12;99006.41;;;1.27;100.00
63700;BME280;49845;47.130;142.766;2023-11-19T12:54:42;99000.38;;;1.19;100.00
63700;BME280;49845;47.130;142.766;2023-11-19T12:57:13;98990.06;;;1.16;100.00
63700;BME280;49845;47.130;142.766;2023-11-19T12:59:43;98996.97;;;1.20;100.00
63700;BME280;49845;47.130;142.766;2023-11-19T13:02:47;99008.97;;;1.31;100.00
63700;BME280;49845;47.130;142.766;2023-11-19T13:05:28;99019.25;;;1.49;100.00
63700;BME280;49845;47.130;142.766;2023-11-19T13:08:02;99020.13;;;1.59;100.00
63700;BME280;49845;47.130;142.766;2023-11-19T13:10:33;99022.72;;;1.60;100.00
63700;BME280;49845;47.130;142.766;2023-11-19T13:13:05;99027.88;;;1.60;100.00
63700;BME280;49845;47.130;142.766;2023-11-19T13:15:36;99017.56;;;1.63;100.00
63700;BME280;49845;47.130;142.766;2023-11-19T13:18:08;99026.13;;;1.81;100.00